sensor_id;sensor_type;location;lat;lon;timestamp;temperature;humidity
30594;DHT22;33199;47.590;8.300;2023-02-15T00:01:10;6.90;72.00
30594;DHT22;33199;47.590;8.300;2023-02-15T00:03:36;6.90;72.00
30594;DHT22;33199;47.590;8.300;2023-02-15T00:06:01;6.90;72.00
30594;DHT22;33199;47.590;8.300;2023-02-15T00:08:27;6.90;72.00
30594;DHT22;33199;47.590;8.300;2023-02-15T00:10:53;6.90;72.00
30594;DHT22;33199;47.590;8.300;2023-02-15T00:13:18;6.90;72.10
30594;DHT22;33199;47.590;8.300;2023-02-15T00:15:44;6.80;72.80
30594;DHT22;33199;47.590;8.300;2023-02-15T00:18:09;6.90;72.10
30594;DHT22;33199;47.590;8.300;2023-02-15T00:20:35;6.90;72.80
30594;DHT22;33199;47.590;8.300;2023-02-15T00:23:00;6.90;72.10
30594;DHT22;33199;47.590;8.300;2023-02-15T00:25:26;6.90;72.00
30594;DHT22;33199;47.590;8.300;2023-02-15T00:27:51;6.90;72.00
30594;DHT22;33199;47.590;8.300;2023-02-15T00:30:17;6.90;72.00
30594;DHT22;33199;47.590;8.300;2023-02-15T00:32:42;6.80;72.80
30594;DHT22;33199;47.590;8.300;2023-02-15T00:35:08;6.90;72.00
30594;DHT22;33199;47.590;8.300;2023-02-15T00:37:34;6.90;72.00
30594;DHT22;33199;47.590;8.300;2023-02-15T00:40:00;6.90;72.00
30594;DHT22;33199;47.590;8.300;2023-02-15T00:42:25;6.80;72.70
30594;DHT22;33199;47.590;8.300;2023-02-15T00:44:51;6.90;72.00
30594;DHT22;33199;47.590;8.300;2023-02-15T00:47:16;6.90;72.00
30594;DHT22;33199;47.590;8.300;2023-02-15T00:49:42;6.90;72.00
30594;DHT22;33199;47.590;8.300;2023-02-15T00:52:07;6.90;72.00
30594;DHT22;33199;47.590;8.300;2023-02-15T00:54:32;6.90;72.00
30594;DHT22;33199;47.590;8.300;2023-02-15T00:56:59;6.80;71.90
30594;DHT22;33199;47.590;8.300;2023-02-15T00:59:25;6.80;71.90
30594;DHT22;33199;47.590;8.300;2023-02-15T01:01:50;6.90;72.00
30594;DHT22;33199;47.590;8.300;2023-02-15T01:04:16;6.80;71.90
30594;DHT22;33199;47.590;8.300;2023-02-15T01:06:41;6.90;72.00
30594;DHT22;33199;47.590;8.300;2023-02-15T01:09:07;6.80;71.90
30594;DHT22;33199;47.590;8.300;2023-02-15T01:11:32;6.80;71.90
30594;DHT22;33199;47.590;8.300;2023-02-15T01:13:58;6.80;71.90
30594;DHT22;33199;47.590;8.300;2023-02-15T01:16:24;6.80;71.90
30594;DHT22;33199;47.590;8.300;2023-02-15T01:18:50;6.80;72.00
30594;DHT22;33199;47.590;8.300;2023-02-15T01:21:17;6.80;72.00
30594;DHT22;33199;47.590;8.300;2023-02-15T01:23:42;6.80;72.00
30594;DHT22;33199;47.590;8.300;2023-02-15T01:26:08;6.80;71.90
30594;DHT22;33199;47.590;8.300;2023-02-15T01:28:34;6.80;71.90
30594;DHT22;33199;47.590;8.300;2023-02-15T01:31:04;6.80;71.90
30594;DHT22;33199;47.590;8.300;2023-02-15T01:33:29;6.80;71.90
30594;DHT22;33199;47.590;8.300;2023-02-15T01:35:58;6.80;71.90
30594;DHT22;33199;47.590;8.300;2023-02-15T01:38:23;6.80;71.90
30594;DHT22;33199;47.590;8.300;2023-02-15T01:40:52;6.80;72.00
30594;DHT22;33199;47.590;8.300;2023-02-15T01:43:18;6.80;71.90
30594;DHT22;33199;47.590;8.300;2023-02-15T01:45:43;6.80;72.00
30594;DHT22;33199;47.590;8.300;2023-02-15T01:48:16;6.80;71.90
30594;DHT22;33199;47.590;8.300;2023-02-15T01:50:44;6.80;71.90
30594;DHT22;33199;47.590;8.300;2023-02-15T01:53:25;6.80;71.90
30594;DHT22;33199;47.590;8.300;2023-02-15T01:55:57;6.80;71.90
30594;DHT22;33199;47.590;8.300;2023-02-15T01:58:23;6.80;71.90
30594;DHT22;33199;47.590;8.300;2023-02-15T02:00:50;6.80;71.90
30594;DHT22;33199;47.590;8.300;2023-02-15T02:03:15;6.80;71.90
30594;DHT22;33199;47.590;8.300;2023-02-15T02:05:41;6.80;71.90
30594;DHT22;33199;47.590;8.300;2023-02-15T02:08:07;6.80;71.90
30594;DHT22;33199;47.590;8.300;2023-02-15T02:10:34;6.80;71.90
30594;DHT22;33199;47.590;8.300;2023-02-15T02:13:01;6.90;71.90
30594;DHT22;33199;47.590;8.300;2023-02-15T02:15:33;6.80;71.90
30594;DHT22;33199;47.590;8.300;2023-02-15T02:18:12;6.80;71.90
30594;DHT22;33199;47.590;8.300;2023-02-15T02:23:22;6.80;71.90
30594;DHT22;33199;47.590;8.300;2023-02-15T02:41:24;6.80;71.90
30594;DHT22;33199;47.590;8.300;2023-02-15T02:43:53;6.80;72.00
30594;DHT22;33199;47.590;8.300;2023-02-15T02:46:30;6.80;72.70
30594;DHT22;33199;47.590;8.300;2023-02-15T02:48:57;6.70;72.00
30594;DHT22;33199;47.590;8.300;2023-02-15T02:51:23;6.80;72.00
30594;DHT22;33199;47.590;8.300;2023-02-15T02:53:50;6.80;72.00
30594;DHT22;33199;47.590;8.300;2023-02-15T02:56:22;6.80;71.90
30594;DHT22;33199;47.590;8.300;2023-02-15T02:58:51;6.80;72.00
30594;DHT22;33199;47.590;8.300;2023-02-15T03:01:31;6.80;71.90
30594;DHT22;33199;47.590;8.300;2023-02-15T03:03:58;6.80;71.90
30594;DHT22;33199;47.590;8.300;2023-02-15T03:06:30;6.80;71.90
30594;DHT22;33199;47.590;8.300;2023-02-15T03:09:01;6.80;71.90
30594;DHT22;33199;47.590;8.300;2023-02-15T03:11:28;6.80;71.90
30594;DHT22;33199;47.590;8.300;2023-02-15T03:13:55;6.80;71.90
30594;DHT22;33199;47.590;8.300;2023-02-15T03:16:20;6.80;72.00
30594;DHT22;33199;47.590;8.300;2023-02-15T03:19:35;6.80;71.90
30594;DHT22;33199;47.590;8.300;2023-02-15T03:21:48;6.80;71.90
30594;DHT22;33199;47.590;8.300;2023-02-15T03:24:23;6.80;71.90
30594;DHT22;33199;47.590;8.300;2023-02-15T03:26:50;6.80;71.90
30594;DHT22;33199;47.590;8.300;2023-02-15T03:29:17;6.80;71.90
30594;DHT22;33199;47.590;8.300;2023-02-15T03:31:45;6.80;72.00
30594;DHT22;33199;47.590;8.300;2023-02-15T03:34:12;6.80;72.00
30594;DHT22;33199;47.590;8.300;2023-02-15T03:36:42;6.70;71.90
30594;DHT22;33199;47.590;8.300;2023-02-15T03:39:17;6.70;71.90
30594;DHT22;33199;47.590;8.300;2023-02-15T03:41:54;6.70;72.00
30594;DHT22;33199;47.590;8.300;2023-02-15T03:44:23;6.80;72.10
30594;DHT22;33199;47.590;8.300;2023-02-15T03:46:56;6.80;72.00
30594;DHT22;33199;47.590;8.300;2023-02-15T03:49:28;6.80;71.90
30594;DHT22;33199;47.590;8.300;2023-02-15T03:51:57;6.80;71.90
30594;DHT22;33199;47.590;8.300;2023-02-15T03:54:25;6.80;71.90
30594;DHT22;33199;47.590;8.300;2023-02-15T04:00:05;6.70;71.90
30594;DHT22;33199;47.590;8.300;2023-02-15T04:02:55;6.70;71.90
30594;DHT22;33199;47.590;8.300;2023-02-15T04:05:22;6.80;71.90
30594;DHT22;33199;47.590;8.300;2023-02-15T04:07:47;6.70;72.60
30594;DHT22;33199;47.590;8.300;2023-02-15T04:10:13;6.70;71.90
30594;DHT22;33199;47.590;8.300;2023-02-15T04:12:57;6.70;71.90
30594;DHT22;33199;47.590;8.300;2023-02-15T04:15:22;6.70;71.90
30594;DHT22;33199;47.590;8.300;2023-02-15T04:18:07;6.70;71.90
30594;DHT22;33199;47.590;8.300;2023-02-15T04:20:32;6.70;71.90
30594;DHT22;33199;47.590;8.300;2023-02-15T04:23:16;6.70;72.70
30594;DHT22;33199;47.590;8.300;2023-02-15T04:26:03;6.70;71.90
30594;DHT22;33199;47.590;8.300;2023-02-15T04:28:28;6.70;71.90
30594;DHT22;33199;47.590;8.300;2023-02-15T04:30:54;6.70;72.00
30594;DHT22;33199;47.590;8.300;2023-02-15T04:33:19;6.70;72.00
30594;DHT22;33199;47.590;8.300;2023-02-15T04:35:45;6.70;71.90
30594;DHT22;33199;47.590;8.300;2023-02-15T04:38:10;6.70;71.90
30594;DHT22;33199;47.590;8.300;2023-02-15T04:40:36;6.70;71.90
30594;DHT22;33199;47.590;8.300;2023-02-15T04:43:01;6.70;71.90
30594;DHT22;33199;47.590;8.300;2023-02-15T04:45:27;6.70;71.90
30594;DHT22;33199;47.590;8.300;2023-02-15T04:47:53;6.70;71.90
30594;DHT22;33199;47.590;8.300;2023-02-15T04:50:18;6.70;72.60
30594;DHT22;33199;47.590;8.300;2023-02-15T04:52:44;6.70;71.80
30594;DHT22;33199;47.590;8.300;2023-02-15T04:55:09;6.70;71.90
30594;DHT22;33199;47.590;8.300;2023-02-15T04:57:35;6.70;71.90
30594;DHT22;33199;47.590;8.300;2023-02-15T05:00:00;6.70;71.90
30594;DHT22;33199;47.590;8.300;2023-02-15T05:02:26;6.70;71.90
30594;DHT22;33199;47.590;8.300;2023-02-15T05:04:51;6.70;71.80
30594;DHT22;33199;47.590;8.300;2023-02-15T05:07:17;6.70;71.90
30594;DHT22;33199;47.590;8.300;2023-02-15T05:09:45;6.70;71.80
30594;DHT22;33199;47.590;8.300;2023-02-15T05:12:10;6.70;71.80
30594;DHT22;33199;47.590;8.300;2023-02-15T05:14:36;6.70;71.80
30594;DHT22;33199;47.590;8.300;2023-02-15T05:17:01;6.70;71.80
30594;DHT22;33199;47.590;8.300;2023-02-15T05:19:28;6.70;71.80
30594;DHT22;33199;47.590;8.300;2023-02-15T05:21:54;6.70;71.80
30594;DHT22;33199;47.590;8.300;2023-02-15T05:24:19;6.70;71.80
30594;DHT22;33199;47.590;8.300;2023-02-15T05:27:03;6.70;71.90
30594;DHT22;33199;47.590;8.300;2023-02-15T05:29:47;6.70;71.90
30594;DHT22;33199;47.590;8.300;2023-02-15T05:32:13;6.70;71.90
30594;DHT22;33199;47.590;8.300;2023-02-15T05:34:39;6.70;71.90
30594;DHT22;33199;47.590;8.300;2023-02-15T05:37:05;6.70;71.90
30594;DHT22;33199;47.590;8.300;2023-02-15T05:39:30;6.70;71.90
30594;DHT22;33199;47.590;8.300;2023-02-15T05:41:58;6.70;71.90
30594;DHT22;33199;47.590;8.300;2023-02-15T05:44:23;6.70;71.80
30594;DHT22;33199;47.590;8.300;2023-02-15T05:46:50;6.70;71.40
30594;DHT22;33199;47.590;8.300;2023-02-15T05:49:16;6.50;66.90
30594;DHT22;33199;47.590;8.300;2023-02-15T05:51:41;6.40;67.70
30594;DHT22;33199;47.590;8.300;2023-02-15T05:54:07;6.30;68.70
30594;DHT22;33199;47.590;8.300;2023-02-15T05:56:32;6.30;69.60
30594;DHT22;33199;47.590;8.300;2023-02-15T05:58:58;6.30;70.40
30594;DHT22;33199;47.590;8.300;2023-02-15T06:01:24;6.40;71.10
30594;DHT22;33199;47.590;8.300;2023-02-15T06:03:49;6.40;71.10
30594;DHT22;33199;47.590;8.300;2023-02-15T06:06:17;6.40;70.80
30594;DHT22;33199;47.590;8.300;2023-02-15T06:08:42;6.40;70.70
30594;DHT22;33199;47.590;8.300;2023-02-15T06:11:08;6.40;70.70
30594;DHT22;33199;47.590;8.300;2023-02-15T06:13:34;6.40;70.70
30594;DHT22;33199;47.590;8.300;2023-02-15T06:15:59;6.40;70.70
30594;DHT22;33199;47.590;8.300;2023-02-15T06:18:25;6.50;70.80
30594;DHT22;33199;47.590;8.300;2023-02-15T06:20:50;6.50;70.80
30594;DHT22;33199;47.590;8.300;2023-02-15T06:23:16;6.40;70.80
30594;DHT22;33199;47.590;8.300;2023-02-15T06:25:41;6.50;70.80
30594;DHT22;33199;47.590;8.300;2023-02-15T06:28:07;6.50;70.80
30594;DHT22;33199;47.590;8.300;2023-02-15T06:30:32;6.50;70.90
30594;DHT22;33199;47.590;8.300;2023-02-15T06:32:58;6.50;70.90
30594;DHT22;33199;47.590;8.300;2023-02-15T06:35:23;6.50;71.00
30594;DHT22;33199;47.590;8.300;2023-02-15T06:37:49;6.50;71.00
30594;DHT22;33199;47.590;8.300;2023-02-15T06:40:15;6.50;71.10
30594;DHT22;33199;47.590;8.300;2023-02-15T06:42:41;6.50;71.10
30594;DHT22;33199;47.590;8.300;2023-02-15T06:45:07;6.50;71.10
30594;DHT22;33199;47.590;8.300;2023-02-15T06:47:32;6.50;71.00
30594;DHT22;33199;47.590;8.300;2023-02-15T06:49:58;6.50;71.00
30594;DHT22;33199;47.590;8.300;2023-02-15T06:52:23;6.50;71.10
30594;DHT22;33199;47.590;8.300;2023-02-15T06:54:49;6.50;71.00
30594;DHT22;33199;47.590;8.300;2023-02-15T06:57:14;6.50;71.00
30594;DHT22;33199;47.590;8.300;2023-02-15T06:59:40;6.50;71.00
30594;DHT22;33199;47.590;8.300;2023-02-15T07:02:05;6.50;71.00
30594;DHT22;33199;47.590;8.300;2023-02-15T07:04:31;6.50;71.10
30594;DHT22;33199;47.590;8.300;2023-02-15T07:06:56;6.50;71.00
30594;DHT22;33199;47.590;8.300;2023-02-15T07:09:22;6.50;71.10
30594;DHT22;33199;47.590;8.300;2023-02-15T07:11:47;6.50;71.10
30594;DHT22;33199;47.590;8.300;2023-02-15T07:14:31;6.50;71.10
30594;DHT22;33199;47.590;8.300;2023-02-15T07:16:57;6.50;71.20
30594;DHT22;33199;47.590;8.300;2023-02-15T07:19:22;6.50;71.20
30594;DHT22;33199;47.590;8.300;2023-02-15T07:21:48;6.50;71.10
30594;DHT22;33199;47.590;8.300;2023-02-15T07:24:13;6.50;71.10
30594;DHT22;33199;47.590;8.300;2023-02-15T07:26:39;6.50;71.20
30594;DHT22;33199;47.590;8.300;2023-02-15T07:29:04;6.50;71.20
30594;DHT22;33199;47.590;8.300;2023-02-15T07:31:30;6.50;71.10
30594;DHT22;33199;47.590;8.300;2023-02-15T07:33:55;6.50;71.10
30594;DHT22;33199;47.590;8.300;2023-02-15T07:36:21;6.50;71.20
30594;DHT22;33199;47.590;8.300;2023-02-15T07:38:46;6.50;71.20
30594;DHT22;33199;47.590;8.300;2023-02-15T07:41:13;6.50;71.20
30594;DHT22;33199;47.590;8.300;2023-02-15T07:43:40;6.50;71.20
30594;DHT22;33199;47.590;8.300;2023-02-15T07:46:07;6.50;71.20
30594;DHT22;33199;47.590;8.300;2023-02-15T07:48:35;6.50;71.20
30594;DHT22;33199;47.590;8.300;2023-02-15T07:51:01;6.50;71.20
30594;DHT22;33199;47.590;8.300;2023-02-15T07:53:27;6.50;71.20
30594;DHT22;33199;47.590;8.300;2023-02-15T07:55:53;6.50;71.20
30594;DHT22;33199;47.590;8.300;2023-02-15T07:58:18;6.50;71.20
30594;DHT22;33199;47.590;8.300;2023-02-15T08:00:44;6.50;71.20
30594;DHT22;33199;47.590;8.300;2023-02-15T08:03:25;6.50;71.20
30594;DHT22;33199;47.590;8.300;2023-02-15T08:05:55;6.50;71.20
30594;DHT22;33199;47.590;8.300;2023-02-15T08:08:20;6.50;71.30
30594;DHT22;33199;47.590;8.300;2023-02-15T08:11:03;6.50;72.00
30594;DHT22;33199;47.590;8.300;2023-02-15T08:14:10;6.50;71.20
30594;DHT22;33199;47.590;8.300;2023-02-15T08:16:37;6.50;71.20
30594;DHT22;33199;47.590;8.300;2023-02-15T08:19:07;6.50;71.20
30594;DHT22;33199;47.590;8.300;2023-02-15T08:21:34;6.50;71.20
30594;DHT22;33199;47.590;8.300;2023-02-15T08:24:00;6.50;71.20
30594;DHT22;33199;47.590;8.300;2023-02-15T08:26:26;6.50;71.20
30594;DHT22;33199;47.590;8.300;2023-02-15T08:28:52;6.50;71.20
30594;DHT22;33199;47.590;8.300;2023-02-15T08:31:17;6.50;71.20
30594;DHT22;33199;47.590;8.300;2023-02-15T08:33:44;6.50;71.20
30594;DHT22;33199;47.590;8.300;2023-02-15T08:36:11;6.50;71.20
30594;DHT22;33199;47.590;8.300;2023-02-15T08:38:36;6.50;71.30
30594;DHT22;33199;47.590;8.300;2023-02-15T08:41:12;6.50;71.20
30594;DHT22;33199;47.590;8.300;2023-02-15T08:43:38;6.50;71.20
30594;DHT22;33199;47.590;8.300;2023-02-15T08:46:04;6.50;71.20
30594;DHT22;33199;47.590;8.300;2023-02-15T08:48:30;6.50;71.20
30594;DHT22;33199;47.590;8.300;2023-02-15T08:50:55;6.50;71.20
30594;DHT22;33199;47.590;8.300;2023-02-15T08:53:21;6.50;71.20
30594;DHT22;33199;47.590;8.300;2023-02-15T08:55:47;6.40;66.70
30594;DHT22;33199;47.590;8.300;2023-02-15T08:58:12;6.20;65.20
30594;DHT22;33199;47.590;8.300;2023-02-15T09:00:38;5.90;64.90
30594;DHT22;33199;47.590;8.300;2023-02-15T09:03:03;5.70;67.00
30594;DHT22;33199;47.590;8.300;2023-02-15T09:05:29;5.60;67.40
30594;DHT22;33199;47.590;8.300;2023-02-15T09:07:54;5.60;68.10
30594;DHT22;33199;47.590;8.300;2023-02-15T09:10:20;5.60;68.80
30594;DHT22;33199;47.590;8.300;2023-02-15T09:12:45;5.70;69.40
30594;DHT22;33199;47.590;8.300;2023-02-15T09:15:11;5.80;70.30
30594;DHT22;33199;47.590;8.300;2023-02-15T09:17:36;5.80;70.60
30594;DHT22;33199;47.590;8.300;2023-02-15T09:20:02;5.90;70.40
30594;DHT22;33199;47.590;8.300;2023-02-15T09:22:27;5.90;70.10
30594;DHT22;33199;47.590;8.300;2023-02-15T09:24:55;5.90;69.80
30594;DHT22;33199;47.590;8.300;2023-02-15T09:27:20;6.00;69.90
30594;DHT22;33199;47.590;8.300;2023-02-15T09:29:46;6.00;69.80
30594;DHT22;33199;47.590;8.300;2023-02-15T09:32:13;6.00;69.60
30594;DHT22;33199;47.590;8.300;2023-02-15T09:34:38;6.10;69.70
30594;DHT22;33199;47.590;8.300;2023-02-15T09:37:04;6.10;69.70
30594;DHT22;33199;47.590;8.300;2023-02-15T09:39:30;6.10;69.80
30594;DHT22;33199;47.590;8.300;2023-02-15T09:57:33;6.20;70.00
30594;DHT22;33199;47.590;8.300;2023-02-15T10:02:38;6.20;70.00
30594;DHT22;33199;47.590;8.300;2023-02-15T10:07:46;6.20;70.00
30594;DHT22;33199;47.590;8.300;2023-02-15T10:10:19;6.20;70.00
30594;DHT22;33199;47.590;8.300;2023-02-15T10:13:00;6.20;70.00
30594;DHT22;33199;47.590;8.300;2023-02-15T10:15:31;6.30;70.10
30594;DHT22;33199;47.590;8.300;2023-02-15T10:33:41;6.30;70.30
30594;DHT22;33199;47.590;8.300;2023-02-15T10:38:58;6.30;70.30
30594;DHT22;33199;47.590;8.300;2023-02-15T10:46:59;6.30;70.30
30594;DHT22;33199;47.590;8.300;2023-02-15T10:52:06;6.30;70.30
30594;DHT22;33199;47.590;8.300;2023-02-15T11:02:25;6.30;70.40
30594;DHT22;33199;47.590;8.300;2023-02-15T11:05:10;6.30;70.30
30594;DHT22;33199;47.590;8.300;2023-02-15T11:07:41;6.30;70.40
30594;DHT22;33199;47.590;8.300;2023-02-15T11:13:19;6.30;70.50
30594;DHT22;33199;47.590;8.300;2023-02-15T11:15:52;6.30;70.50
30594;DHT22;33199;47.590;8.300;2023-02-15T11:18:53;6.30;70.40
30594;DHT22;33199;47.590;8.300;2023-02-15T11:21:53;6.30;70.40
30594;DHT22;33199;47.590;8.300;2023-02-15T11:24:07;6.40;70.50
30594;DHT22;33199;47.590;8.300;2023-02-15T11:26:39;6.40;70.50
30594;DHT22;33199;47.590;8.300;2023-02-15T11:29:41;6.30;70.30
30594;DHT22;33199;47.590;8.300;2023-02-15T11:32:12;6.40;70.50
30594;DHT22;33199;47.590;8.300;2023-02-15T11:37:46;6.30;70.40
30594;DHT22;33199;47.590;8.300;2023-02-15T11:40:15;6.30;70.40
30594;DHT22;33199;47.590;8.300;2023-02-15T11:42:42;6.40;70.50
30594;DHT22;33199;47.590;8.300;2023-02-15T11:45:18;6.40;70.50
30594;DHT22;33199;47.590;8.300;2023-02-15T11:47:44;6.40;70.50
30594;DHT22;33199;47.590;8.300;2023-02-15T11:50:12;6.40;70.60
30594;DHT22;33199;47.590;8.300;2023-02-15T11:52:38;6.40;70.60
30594;DHT22;33199;47.590;8.300;2023-02-15T11:55:09;6.40;70.50
30594;DHT22;33199;47.590;8.300;2023-02-15T11:57:38;6.40;70.50
30594;DHT22;33199;47.590;8.300;2023-02-15T12:00:15;6.40;70.50
30594;DHT22;33199;47.590;8.300;2023-02-15T12:02:45;6.40;70.50
30594;DHT22;33199;47.590;8.300;2023-02-15T12:05:13;6.40;70.50
30594;DHT22;33199;47.590;8.300;2023-02-15T12:07:41;6.40;70.60
30594;DHT22;33199;47.590;8.300;2023-02-15T12:10:25;6.40;70.60
30594;DHT22;33199;47.590;8.300;2023-02-15T12:13:13;6.40;70.60
30594;DHT22;33199;47.590;8.300;2023-02-15T12:15:36;6.40;70.60
30594;DHT22;33199;47.590;8.300;2023-02-15T12:18:03;6.40;70.60
30594;DHT22;33199;47.590;8.300;2023-02-15T12:20:29;6.40;70.60
30594;DHT22;33199;47.590;8.300;2023-02-15T12:23:03;6.40;70.60
30594;DHT22;33199;47.590;8.300;2023-02-15T12:25:41;6.40;70.60
30594;DHT22;33199;47.590;8.300;2023-02-15T12:30:48;6.40;70.50
30594;DHT22;33199;47.590;8.300;2023-02-15T12:33:26;6.40;70.60
30594;DHT22;33199;47.590;8.300;2023-02-15T12:35:56;6.40;70.50
30594;DHT22;33199;47.590;8.300;2023-02-15T12:38:25;6.40;70.50
30594;DHT22;33199;47.590;8.300;2023-02-15T12:41:03;6.40;70.50
30594;DHT22;33199;47.590;8.300;2023-02-15T12:43:33;6.40;70.70
30594;DHT22;33199;47.590;8.300;2023-02-15T12:48:39;6.40;70.50
30594;DHT22;33199;47.590;8.300;2023-02-15T12:51:07;6.50;70.60
30594;DHT22;33199;47.590;8.300;2023-02-15T12:53:33;6.50;70.60
30594;DHT22;33199;47.590;8.300;2023-02-15T12:56:03;6.40;70.70
30594;DHT22;33199;47.590;8.300;2023-02-15T12:58:29;6.40;70.70
30594;DHT22;33199;47.590;8.300;2023-02-15T13:01:15;6.50;70.80
30594;DHT22;33199;47.590;8.300;2023-02-15T13:04:00;6.50;70.70
30594;DHT22;33199;47.590;8.300;2023-02-15T13:06:27;6.40;70.60
30594;DHT22;33199;47.590;8.300;2023-02-15T13:08:54;6.50;70.70
30594;DHT22;33199;47.590;8.300;2023-02-15T13:11:30;6.50;70.70
30594;DHT22;33199;47.590;8.300;2023-02-15T13:14:03;6.50;70.70
30594;DHT22;33199;47.590;8.300;2023-02-15T13:16:33;6.50;70.70
30594;DHT22;33199;47.590;8.300;2023-02-15T13:19:19;6.50;70.70
30594;DHT22;33199;47.590;8.300;2023-02-15T13:21:46;6.50;70.80
30594;DHT22;33199;47.590;8.300;2023-02-15T13:24:20;6.50;70.80
30594;DHT22;33199;47.590;8.300;2023-02-15T13:26:47;6.50;70.70
30594;DHT22;33199;47.590;8.300;2023-02-15T13:29:24;6.50;70.70
30594;DHT22;33199;47.590;8.300;2023-02-15T13:31:51;6.50;70.70
30594;DHT22;33199;47.590;8.300;2023-02-15T13:34:20;6.50;70.70
30594;DHT22;33199;47.590;8.300;2023-02-15T13:42:18;6.50;70.60
30594;DHT22;33199;47.590;8.300;2023-02-15T13:52:20;6.60;70.80
30594;DHT22;33199;47.590;8.300;2023-02-15T13:54:53;6.50;70.60
30594;DHT22;33199;47.590;8.300;2023-02-15T13:59:52;6.60;70.70
30594;DHT22;33199;47.590;8.300;2023-02-15T14:02:30;6.60;70.70
30594;DHT22;33199;47.590;8.300;2023-02-15T14:18:01;6.60;70.80
30594;DHT22;33199;47.590;8.300;2023-02-15T14:28:14;6.70;70.80
30594;DHT22;33199;47.590;8.300;2023-02-15T14:30:42;6.60;70.80
30594;DHT22;33199;47.590;8.300;2023-02-15T14:35:34;6.70;70.80
30594;DHT22;33199;47.590;8.300;2023-02-15T14:43:37;6.70;70.90
30594;DHT22;33199;47.590;8.300;2023-02-15T14:48:53;6.70;70.90
30594;DHT22;33199;47.590;8.300;2023-02-15T14:51:53;6.70;70.90
30594;DHT22;33199;47.590;8.300;2023-02-15T14:56:46;6.70;70.90
30594;DHT22;33199;47.590;8.300;2023-02-15T14:59:19;6.70;70.90
30594;DHT22;33199;47.590;8.300;2023-02-15T15:02:20;6.70;71.00
30594;DHT22;33199;47.590;8.300;2023-02-15T15:04:41;6.70;71.00
30594;DHT22;33199;47.590;8.300;2023-02-15T15:09:40;6.70;71.00
30594;DHT22;33199;47.590;8.300;2023-02-15T15:14:46;6.70;70.90
30594;DHT22;33199;47.590;8.300;2023-02-15T15:19:57;6.70;70.90
30594;DHT22;33199;47.590;8.300;2023-02-15T15:22:24;6.70;71.00
30594;DHT22;33199;47.590;8.300;2023-02-15T15:30:00;6.70;71.10
30594;DHT22;33199;47.590;8.300;2023-02-15T15:32:27;6.70;71.00
30594;DHT22;33199;47.590;8.300;2023-02-15T15:35:05;6.70;71.00
30594;DHT22;33199;47.590;8.300;2023-02-15T15:37:51;6.70;71.10
30594;DHT22;33199;47.590;8.300;2023-02-15T15:40:34;6.70;71.10
30594;DHT22;33199;47.590;8.300;2023-02-15T15:43:19;6.70;71.10
30594;DHT22;33199;47.590;8.300;2023-02-15T15:48:35;6.80;71.20
30594;DHT22;33199;47.590;8.300;2023-02-15T15:53:42;6.80;71.20
30594;DHT22;33199;47.590;8.300;2023-02-15T15:56:11;6.80;71.20
30594;DHT22;33199;47.590;8.300;2023-02-15T15:58:41;6.80;71.20
30594;DHT22;33199;47.590;8.300;2023-02-15T16:01:08;6.80;71.20
30594;DHT22;33199;47.590;8.300;2023-02-15T16:03:34;6.80;71.20
30594;DHT22;33199;47.590;8.300;2023-02-15T16:06:00;6.80;71.20
30594;DHT22;33199;47.590;8.300;2023-02-15T16:08:29;6.80;71.30
30594;DHT22;33199;47.590;8.300;2023-02-15T16:10:55;6.80;71.30
30594;DHT22;33199;47.590;8.300;2023-02-15T16:13:21;6.80;71.20
30594;DHT22;33199;47.590;8.300;2023-02-15T16:15:47;6.80;71.20
30594;DHT22;33199;47.590;8.300;2023-02-15T16:18:15;6.80;71.20
30594;DHT22;33199;47.590;8.300;2023-02-15T16:20:42;6.80;71.20
30594;DHT22;33199;47.590;8.300;2023-02-15T16:23:21;6.80;71.30
30594;DHT22;33199;47.590;8.300;2023-02-15T16:26:09;6.80;71.20
30594;DHT22;33199;47.590;8.300;2023-02-15T16:28:37;6.80;71.30
30594;DHT22;33199;47.590;8.300;2023-02-15T16:31:05;6.80;71.30
30594;DHT22;33199;47.590;8.300;2023-02-15T16:33:37;6.80;71.20
30594;DHT22;33199;47.590;8.300;2023-02-15T16:36:03;6.80;71.30
30594;DHT22;33199;47.590;8.300;2023-02-15T16:41:08;6.80;71.30
30594;DHT22;33199;47.590;8.300;2023-02-15T16:43:35;6.80;71.30
30594;DHT22;33199;47.590;8.300;2023-02-15T16:46:06;6.80;71.30
30594;DHT22;33199;47.590;8.300;2023-02-15T16:48:32;6.80;71.30
30594;DHT22;33199;47.590;8.300;2023-02-15T16:50:59;6.80;71.30
30594;DHT22;33199;47.590;8.300;2023-02-15T16:53:26;6.80;71.40
30594;DHT22;33199;47.590;8.300;2023-02-15T16:55:53;6.80;71.40
30594;DHT22;33199;47.590;8.300;2023-02-15T16:58:21;6.80;71.40
30594;DHT22;33199;47.590;8.300;2023-02-15T17:00:48;6.80;71.40
30594;DHT22;33199;47.590;8.300;2023-02-15T17:08:18;6.80;71.30
30594;DHT22;33199;47.590;8.300;2023-02-15T17:10:46;6.80;71.40
30594;DHT22;33199;47.590;8.300;2023-02-15T17:13:25;6.80;71.40
30594;DHT22;33199;47.590;8.300;2023-02-15T17:18:24;6.80;71.40
30594;DHT22;33199;47.590;8.300;2023-02-15T17:20:52;6.80;71.40
30594;DHT22;33199;47.590;8.300;2023-02-15T17:23:23;6.80;71.40
30594;DHT22;33199;47.590;8.300;2023-02-15T17:25:50;6.80;71.40
30594;DHT22;33199;47.590;8.300;2023-02-15T17:28:17;6.80;71.50
30594;DHT22;33199;47.590;8.300;2023-02-15T17:30:44;6.80;71.50
30594;DHT22;33199;47.590;8.300;2023-02-15T17:36:01;6.80;72.30
30594;DHT22;33199;47.590;8.300;2023-02-15T17:38:27;6.80;71.50
30594;DHT22;33199;47.590;8.300;2023-02-15T17:40:52;6.80;71.50
30594;DHT22;33199;47.590;8.300;2023-02-15T17:43:18;6.80;71.50
30594;DHT22;33199;47.590;8.300;2023-02-15T17:45:46;6.80;71.50
30594;DHT22;33199;47.590;8.300;2023-02-15T17:48:16;6.80;71.70
30594;DHT22;33199;47.590;8.300;2023-02-15T17:50:43;6.80;71.50
30594;DHT22;33199;47.590;8.300;2023-02-15T17:53:09;6.80;71.50
30594;DHT22;33199;47.590;8.300;2023-02-15T17:55:35;6.80;71.50
30594;DHT22;33199;47.590;8.300;2023-02-15T17:58:10;6.80;71.60
30594;DHT22;33199;47.590;8.300;2023-02-15T18:00:41;6.80;71.50
30594;DHT22;33199;47.590;8.300;2023-02-15T18:03:26;6.80;71.60
30594;DHT22;33199;47.590;8.300;2023-02-15T18:06:11;6.80;71.60
30594;DHT22;33199;47.590;8.300;2023-02-15T18:08:56;6.80;71.60
30594;DHT22;33199;47.590;8.300;2023-02-15T18:11:40;6.80;71.60
30594;DHT22;33199;47.590;8.300;2023-02-15T18:14:07;6.80;71.60
30594;DHT22;33199;47.590;8.300;2023-02-15T18:16:34;6.80;71.60
30594;DHT22;33199;47.590;8.300;2023-02-15T18:19:00;6.80;71.60
30594;DHT22;33199;47.590;8.300;2023-02-15T18:21:26;6.80;71.50
30594;DHT22;33199;47.590;8.300;2023-02-15T18:23:52;6.80;70.80
30594;DHT22;33199;47.590;8.300;2023-02-15T18:26:18;6.60;70.70
30594;DHT22;33199;47.590;8.300;2023-02-15T18:28:44;6.50;71.00
30594;DHT22;33199;47.590;8.300;2023-02-15T18:31:10;6.50;71.10
30594;DHT22;33199;47.590;8.300;2023-02-15T18:33:49;6.40;71.40
30594;DHT22;33199;47.590;8.300;2023-02-15T18:36:19;6.40;71.80
30594;DHT22;33199;47.590;8.300;2023-02-15T18:38:46;6.40;72.40
30594;DHT22;33199;47.590;8.300;2023-02-15T18:41:14;6.40;72.90
30594;DHT22;33199;47.590;8.300;2023-02-15T18:43:40;6.50;73.20
30594;DHT22;33199;47.590;8.300;2023-02-15T18:46:05;6.50;73.20